Time;durP1;ratioP1;P1;durP2;ratioP2;P2;SDS_P1;SDS_P2;PMS_P1;PMS_P2;Temp;Humidity;BMP_temperature;BMP_pressure;BME280_temperature;BME280_humidity;BME280_pressure;Samples;Min_cycle;Max_cycle;Signal;HPM_P1;HPM_P2
2023/10/22 00:01:41;;;;;;;2.30;1.33;;;14.30;99.90;;;;;;4374360;28;657740;-67
2023/10/22 00:04:29;;;;;;;2.03;1.30;;;14.30;99.90;;;;;;4347427;28;657898;-66
2023/10/22 00:07:16;;;;;;;7.93;1.40;;;14.20;99.90;;;;;;4367880;28;657407;-67
2023/10/22 00:10:03;;;;;;;2.07;1.20;;;14.20;99.90;;;;;;4351437;28;657743;-67
2023/10/22 00:12:51;;;;;;;6.43;1.10;;;14.10;99.90;;;;;;4369887;28;658317;-66
2023/10/22 00:15:38;;;;;;;3.57;1.73;;;14.10;99.90;;;;;;4350315;28;658283;-66
2023/10/22 00:18:27;;;;;;;1.83;0.83;;;14.10;99.90;;;;;;4372306;28;657967;-66
2023/10/22 00:21:14;;;;;;;6.73;1.17;;;14.10;99.90;;;;;;4352096;28;657831;-67
2023/10/22 00:24:01;;;;;;;1.10;0.70;;;14.10;99.90;;;;;;4366487;28;658111;-66
2023/10/22 00:26:48;;;;;;;1.30;0.80;;;14.10;99.90;;;;;;4346367;28;657770;-66
2023/10/22 00:29:35;;;;;;;2.93;1.10;;;14.00;99.90;;;;;;4367643;28;658505;-66
2023/10/22 00:32:23;;;;;;;4.33;0.97;;;14.00;99.90;;;;;;4352202;28;658572;-67
2023/10/22 00:35:12;;;;;;;4.50;1.00;;;13.90;99.90;;;;;;4368578;28;659449;-67
2023/10/22 00:37:59;;;;;;;4.20;1.20;;;13.80;99.90;;;;;;4353300;28;657889;-67
2023/10/22 00:40:46;;;;;;;12.97;1.40;;;13.80;99.90;;;;;;4374477;28;658789;-66
2023/10/22 00:43:33;;;;;;;2.00;0.93;;;13.70;99.90;;;;;;4353157;28;659066;-67
2023/10/22 00:46:21;;;;;;;4.40;0.80;;;13.70;99.90;;;;;;4357288;28;658218;-66
2023/10/22 00:49:09;;;;;;;3.73;0.97;;;13.70;99.90;;;;;;4356851;28;658133;-66
2023/10/22 00:51:57;;;;;;;4.57;1.10;;;13.70;99.90;;;;;;4377865;28;658030;-66
2023/10/22 00:54:45;;;;;;;4.17;0.97;;;13.70;99.90;;;;;;4359977;28;658088;-67
2023/10/22 00:57:33;;;;;;;5.43;1.23;;;13.70;99.90;;;;;;4350927;28;657587;-67
2023/10/22 01:00:20;;;;;;;3.97;1.40;;;13.70;99.90;;;;;;4372696;28;659020;-66
2023/10/22 01:03:07;;;;;;;3.23;1.20;;;13.80;99.90;;;;;;4371793;28;657537;-68
2023/10/22 01:05:56;;;;;;;24.20;2.03;;;13.70;99.90;;;;;;4378155;28;659826;-67
2023/10/22 01:08:44;;;;;;;1.53;0.90;;;13.80;99.90;;;;;;4351429;28;658643;-67
2023/10/22 01:11:32;;;;;;;3.13;0.90;;;13.70;99.90;;;;;;4377830;28;657576;-67
2023/10/22 01:14:19;;;;;;;1.87;0.87;;;13.80;99.90;;;;;;4350755;28;657747;-67
2023/10/22 01:17:06;;;;;;;3.00;0.90;;;13.80;99.90;;;;;;4379837;28;657591;-67
2023/10/22 01:19:53;;;;;;;5.07;1.10;;;13.80;99.90;;;;;;4355799;28;658083;-67
2023/10/22 01:22:41;;;;;;;4.87;1.43;;;13.80;99.90;;;;;;4381651;28;657850;-67
2023/10/22 01:25:29;;;;;;;3.83;1.80;;;13.80;99.90;;;;;;4357450;28;658085;-67
2023/10/22 01:28:16;;;;;;;4.50;1.95;;;13.80;99.90;;;;;;4375343;28;658631;-67
2023/10/22 01:31:04;;;;;;;4.67;2.23;;;13.80;99.90;;;;;;4357244;28;657753;-67
2023/10/22 01:33:52;;;;;;;6.70;2.40;;;13.90;99.90;;;;;;4382860;28;657229;-66
2023/10/22 01:36:41;;;;;;;3.70;2.17;;;13.90;99.90;;;;;;4358975;28;659126;-67
2023/10/22 01:39:28;;;;;;;12.30;1.47;;;13.80;99.90;;;;;;4344786;28;657716;-67
2023/10/22 01:42:17;;;;;;;19.23;1.83;;;13.80;99.90;;;;;;4364818;28;659866;-67
2023/10/22 01:45:06;;;;;;;6.30;1.60;;;13.70;99.90;;;;;;4341599;28;659437;-66
2023/10/22 01:47:54;;;;;;;5.70;1.40;;;13.50;99.90;;;;;;4342955;28;657640;-67
2023/10/22 01:50:41;;;;;;;2.77;1.07;;;13.50;99.90;;;;;;4367458;28;657614;-66
2023/10/22 01:53:29;;;;;;;3.00;1.30;;;13.50;99.90;;;;;;4351776;28;657858;-67
2023/10/22 01:56:16;;;;;;;5.13;1.20;;;13.50;99.90;;;;;;4367792;28;657532;-67
2023/10/22 01:59:05;;;;;;;5.30;1.50;;;13.50;99.90;;;;;;4344194;28;658557;-67
2023/10/22 02:01:53;;;;;;;4.23;1.63;;;13.60;99.90;;;;;;4350237;28;657261;-67
2023/10/22 02:04:40;;;;;;;308.90;10.27;;;13.60;99.90;;;;;;4372829;28;658285;-67
2023/10/22 02:07:27;;;;;;;63.40;2.93;;;13.50;99.90;;;;;;4361167;28;660704;-67
2023/10/22 02:10:15;;;;;;;2.93;1.30;;;13.40;99.90;;;;;;4367447;28;659174;-67
2023/10/22 02:13:03;;;;;;;3.00;1.07;;;13.40;99.90;;;;;;4367962;28;657722;-68
2023/10/22 02:15:51;;;;;;;2.90;1.23;;;13.50;99.90;;;;;;4367011;28;659164;-67
2023/10/22 02:18:39;;;;;;;93.43;3.40;;;13.50;99.90;;;;;;4348854;28;657878;-67
2023/10/22 02:21:26;;;;;;;5.70;1.47;;;13.40;99.90;;;;;;4364730;28;658776;-67
2023/10/22 02:24:14;;;;;;;2.37;1.40;;;13.50;99.90;;;;;;4343142;28;657359;-66
2023/10/22 02:27:01;;;;;;;6.20;1.50;;;13.50;99.90;;;;;;4368075;28;657573;-67
2023/10/22 02:29:48;;;;;;;1.60;1.10;;;13.50;99.90;;;;;;4349672;28;657571;-67
2023/10/22 02:32:37;;;;;;;60.23;2.87;;;13.50;99.90;;;;;;4367569;28;659605;-67
2023/10/22 02:35:24;;;;;;;261.90;8.83;;;13.50;99.90;;;;;;4307816;28;659268;-68
2023/10/22 02:38:12;;;;;;;19.57;1.50;;;13.60;99.90;;;;;;4252921;28;659799;-68
2023/10/22 02:41:00;;;;;;;2.90;1.47;;;13.60;99.90;;;;;;4236601;28;659747;-68
2023/10/22 02:43:47;;;;;;;3.33;1.50;;;13.60;99.90;;;;;;4262419;28;657994;-68
2023/10/22 02:46:35;;;;;;;5.37;1.73;;;13.50;99.90;;;;;;4360023;28;658460;-67
2023/10/22 02:49:24;;;;;;;4.83;3.10;;;13.50;99.90;;;;;;4362814;28;657519;-68
2023/10/22 02:52:11;;;;;;;9.57;3.07;;;13.60;99.90;;;;;;4363818;28;657642;-67
2023/10/22 02:54:59;;;;;;;5.20;3.13;;;13.60;99.90;;;;;;4344575;28;657711;-67
2023/10/22 02:57:47;;;;;;;8.77;3.43;;;13.50;99.90;;;;;;4365916;28;658178;-67
2023/10/22 03:00:35;;;;;;;6.90;3.30;;;13.50;99.90;;;;;;4348985;28;657597;-67
2023/10/22 03:03:23;;;;;;;518.87;17.33;;;13.40;99.90;;;;;;4361229;28;658276;-68
2023/10/22 03:06:12;;;;;;;186.40;6.40;;;13.30;99.90;;;;;;4366707;28;661754;-67
2023/10/22 03:08:59;;;;;;;129.87;4.50;;;13.20;99.90;;;;;;4345108;28;660949;-67
2023/10/22 03:11:46;;;;;;;5.97;2.57;;;13.20;99.90;;;;;;4365332;28;659691;-67
2023/10/22 03:14:34;;;;;;;4.20;2.77;;;13.20;99.90;;;;;;4344847;28;657494;-67
2023/10/22 03:17:21;;;;;;;6.67;3.90;;;13.20;99.90;;;;;;4372656;28;658002;-67
2023/10/22 03:20:10;;;;;;;6.53;3.23;;;13.30;99.90;;;;;;4347632;28;657823;-68
2023/10/22 03:23:01;;;;;;;11.00;3.10;;;13.30;99.90;;;;;;4352425;28;658288;-67
2023/10/22 03:25:48;;;;;;;7.50;3.60;;;13.40;99.90;;;;;;4346421;28;658470;-66
2023/10/22 03:28:36;;;;;;;5.53;3.17;;;13.40;99.90;;;;;;4373026;28;658298;-66
2023/10/22 03:31:23;;;;;;;12.10;3.50;;;13.40;99.90;;;;;;4347114;28;657990;-67
2023/10/22 03:34:11;;;;;;;6.80;4.60;;;13.40;99.90;;;;;;4373285;28;658331;-67
2023/10/22 03:37:00;;;;;;;7.60;5.40;;;13.40;99.90;;;;;;4344934;28;657468;-67
2023/10/22 03:39:49;;;;;;;7.50;4.90;;;13.50;99.90;;;;;;4374801;28;658630;-67
2023/10/22 03:42:36;;;;;;;11.13;4.70;;;13.50;99.90;;;;;;4378066;28;657657;-67
2023/10/22 03:45:23;;;;;;;11.17;4.60;;;13.50;99.90;;;;;;4351762;28;659036;-66
2023/10/22 03:48:10;;;;;;;11.00;5.20;;;13.50;99.90;;;;;;4372402;28;659691;-67
2023/10/22 03:50:58;;;;;;;16.03;6.47;;;13.40;99.90;;;;;;4355853;28;658223;-67
2023/10/22 03:53:45;;;;;;;17.33;5.77;;;13.40;99.90;;;;;;4374481;28;659393;-67
2023/10/22 03:56:34;;;;;;;20.40;7.43;;;13.40;99.90;;;;;;4365002;28;659067;-68
2023/10/22 03:59:21;;;;;;;221.40;9.97;;;13.40;99.90;;;;;;4368909;28;659560;-67
2023/10/22 04:02:08;;;;;;;344.43;14.13;;;13.50;99.90;;;;;;4351730;28;659972;-67
2023/10/22 04:04:56;;;;;;;17.73;8.32;;;13.60;99.90;;;;;;4381198;28;661809;-68
2023/10/22 04:07:43;;;;;;;24.80;8.27;;;13.50;99.90;;;;;;4359248;28;658623;-67
2023/10/22 04:10:30;;;;;;;59.70;8.83;;;13.40;99.90;;;;;;4379160;28;658381;-67
2023/10/22 04:13:19;;;;;;;57.33;8.80;;;13.30;99.90;;;;;;4357818;28;658410;-67
2023/10/22 04:16:06;;;;;;;68.72;8.52;;;13.30;99.90;;;;;;4371882;28;660051;-67
2023/10/22 04:18:53;;;;;;;50.87;7.97;;;13.30;99.90;;;;;;4357312;28;658705;-67
2023/10/22 04:21:41;;;;;;;55.53;7.27;;;13.30;99.90;;;;;;4375049;28;659821;-67
2023/10/22 04:24:28;;;;;;;177.03;9.13;;;13.30;99.90;;;;;;4356685;28;659576;-68
2023/10/22 04:27:15;;;;;;;14.83;6.97;;;13.20;99.90;;;;;;4379613;28;660825;-67
2023/10/22 04:30:05;;;;;;;11.13;5.30;;;13.20;99.90;;;;;;4355751;28;658618;-67
2023/10/22 04:32:54;;;;;;;12.07;5.20;;;13.20;99.90;;;;;;4350842;28;659993;-67
2023/10/22 04:35:41;;;;;;;10.37;5.60;;;13.20;99.90;;;;;;4373629;28;659469;-67
2023/10/22 04:38:29;;;;;;;16.63;7.23;;;13.20;99.90;;;;;;4347004;28;658690;-67
2023/10/22 04:41:16;;;;;;;12.03;6.93;;;13.30;99.90;;;;;;4370717;28;658410;-67
2023/10/22 04:44:05;;;;;;;12.23;7.03;;;13.30;99.90;;;;;;4350909;28;658799;-67
2023/10/22 04:46:53;;;;;;;14.80;7.77;;;13.30;99.90;;;;;;4371398;28;658284;-67
2023/10/22 04:49:42;;;;;;;13.40;6.87;;;13.30;99.90;;;;;;4346882;28;660250;-67
2023/10/22 04:52:32;;;;;;;14.37;7.20;;;13.30;99.90;;;;;;4347423;28;659771;-67
2023/10/22 04:55:19;;;;;;;13.93;7.33;;;13.40;99.90;;;;;;4346161;28;660032;-67
2023/10/22 04:58:07;;;;;;;16.23;7.80;;;13.30;99.90;;;;;;4378098;28;658669;-66
2023/10/22 05:00:54;;;;;;;20.87;6.70;;;13.30;99.90;;;;;;4353906;28;659339;-67
2023/10/22 05:03:42;;;;;;;16.90;6.93;;;13.20;99.90;;;;;;4374376;28;660022;-67
2023/10/22 05:06:29;;;;;;;14.13;6.57;;;13.20;99.90;;;;;;4360576;28;659435;-66
2023/10/22 05:09:17;;;;;;;13.77;6.93;;;13.20;99.90;;;;;;4377163;28;658938;-67
2023/10/22 05:12:05;;;;;;;18.50;8.23;;;13.30;99.90;;;;;;4354411;28;658955;-67
2023/10/22 05:14:52;;;;;;;15.13;7.50;;;13.20;99.90;;;;;;4375538;28;658730;-68
2023/10/22 05:17:40;;;;;;;15.33;7.47;;;13.30;99.90;;;;;;4377356;28;660222;-67
2023/10/22 05:20:30;;;;;;;12.30;6.93;;;13.30;99.90;;;;;;4372183;28;658807;-67
2023/10/22 05:23:17;;;;;;;12.00;6.27;;;13.30;99.90;;;;;;4336169;28;658641;-68
2023/10/22 05:26:06;;;;;;;141.50;8.77;;;13.30;99.90;;;;;;4376746;28;660020;-67
2023/10/22 05:28:54;;;;;;;426.50;14.57;;;13.30;99.90;;;;;;4352212;28;659853;-67
2023/10/22 05:31:42;;;;;;;190.97;9.10;;;13.40;99.90;;;;;;4365771;28;660704;-67
2023/10/22 05:34:29;;;;;;;9.00;4.90;;;13.40;99.90;;;;;;4347944;28;660188;-67
2023/10/22 05:37:18;;;;;;;10.70;5.97;;;13.30;99.90;;;;;;4372749;28;657209;-66
2023/10/22 05:40:09;;;;;;;11.97;6.80;;;13.20;99.90;;;;;;4343031;28;659445;-67
2023/10/22 05:42:56;;;;;;;14.77;6.17;;;13.20;99.90;;;;;;4342815;28;658825;-67
2023/10/22 05:45:43;;;;;;;14.67;7.50;;;13.20;99.90;;;;;;4347800;28;659017;-67
2023/10/22 05:48:30;;;;;;;11.30;6.47;;;13.10;99.90;;;;;;4366295;28;659053;-67
2023/10/22 05:51:17;;;;;;;12.60;6.18;;;13.20;99.90;;;;;;4343006;28;658672;-67
2023/10/22 05:54:06;;;;;;;12.73;5.87;;;13.20;99.90;;;;;;4362230;28;659540;-67
2023/10/22 05:56:53;;;;;;;14.20;5.73;;;13.20;99.90;;;;;;4344268;28;659485;-67
2023/10/22 05:59:41;;;;;;;9.40;5.70;;;13.20;99.90;;;;;;4364758;28;660348;-67
2023/10/22 06:02:28;;;;;;;10.50;5.70;;;13.20;99.90;;;;;;4345553;28;657774;-67
2023/10/22 06:05:15;;;;;;;13.57;5.30;;;13.20;99.90;;;;;;4366384;28;660158;-67
2023/10/22 06:08:03;;;;;;;25.57;5.87;;;13.20;99.90;;;;;;4342960;28;658709;-67
2023/10/22 06:10:51;;;;;;;14.90;5.83;;;13.20;99.90;;;;;;4371298;28;658522;-67
2023/10/22 06:13:39;;;;;;;17.20;6.03;;;13.20;99.90;;;;;;4343073;28;659880;-67
2023/10/22 06:16:26;;;;;;;14.00;6.77;;;13.20;99.90;;;;;;4367975;28;659166;-67
2023/10/22 06:19:14;;;;;;;15.17;7.40;;;13.20;99.90;;;;;;4350103;28;661352;-67
2023/10/22 06:22:01;;;;;;;54.33;7.50;;;13.20;99.90;;;;;;4364360;28;659554;-67
2023/10/22 06:24:48;;;;;;;16.93;6.50;;;13.30;99.90;;;;;;4347175;28;659144;-67
2023/10/22 06:27:37;;;;;;;11.00;6.30;;;13.30;99.90;;;;;;4373085;28;659101;-67
2023/10/22 06:30:25;;;;;;;13.60;6.30;;;13.20;99.90;;;;;;4348388;28;658811;-67
2023/10/22 06:33:13;;;;;;;11.50;6.57;;;13.30;99.90;;;;;;4369830;28;659219;-67
2023/10/22 06:36:00;;;;;;;259.60;10.43;;;13.30;99.90;;;;;;4279243;28;659993;-68
2023/10/22 06:38:49;;;;;;;36.77;6.57;;;13.40;99.90;;;;;;4254647;28;660757;-67
2023/10/22 06:41:36;;;;;;;15.67;7.00;;;13.40;99.90;;;;;;4263460;28;659036;-68
2023/10/22 06:44:25;;;;;;;15.80;8.20;;;13.40;99.90;;;;;;4269378;28;659010;-67
2023/10/22 06:47:12;;;;;;;24.17;8.63;;;13.40;99.90;;;;;;4360226;28;658820;-67
2023/10/22 06:50:00;;;;;;;15.70;6.93;;;13.50;99.90;;;;;;4383429;28;658254;-67
2023/10/22 06:52:47;;;;;;;14.60;6.90;;;13.50;99.90;;;;;;4370005;28;658725;-67
2023/10/22 06:55:35;;;;;;;22.10;6.43;;;13.60;99.90;;;;;;4377910;28;659717;-67
2023/10/22 06:58:22;;;;;;;16.27;5.90;;;13.60;99.90;;;;;;4365199;28;658731;-67
2023/10/22 07:01:12;;;;;;;19.83;5.50;;;13.60;99.90;;;;;;4378534;28;658673;-67
2023/10/22 07:03:59;;;;;;;17.07;5.17;;;13.70;99.90;;;;;;4351324;28;659664;-67
2023/10/22 07:06:46;;;;;;;9.97;4.40;;;13.80;99.90;;;;;;4373914;28;658344;-66
2023/10/22 07:09:34;;;;;;;8.07;4.23;;;13.90;99.90;;;;;;4350044;28;657165;-66
2023/10/22 07:12:21;;;;;;;8.87;3.30;;;14.00;99.90;;;;;;4379420;28;659131;-66
2023/10/22 07:15:12;;;;;;;20.00;4.50;;;14.10;99.90;;;;;;4360841;28;658518;-67
2023/10/22 07:18:00;;;;;;;7.00;4.07;;;14.20;99.90;;;;;;4356898;28;660088;-67
2023/10/22 07:20:47;;;;;;;7.67;3.33;;;14.20;99.90;;;;;;4356598;28;658868;-67
2023/10/22 07:23:35;;;;;;;6.23;3.80;;;14.20;99.90;;;;;;4378800;28;658587;-67
2023/10/22 07:26:22;;;;;;;10.83;3.80;;;14.30;99.90;;;;;;4371090;28;657709;-67
2023/10/22 07:29:12;;;;;;;52.53;5.07;;;14.40;99.90;;;;;;4383258;28;658765;-67
2023/10/22 07:31:59;;;;;;;242.33;10.00;;;14.40;99.90;;;;;;4356475;28;659601;-67
2023/10/22 07:34:48;;;;;;;37.50;6.17;;;14.50;99.90;;;;;;4370102;28;661290;-66
2023/10/22 07:37:37;;;;;;;14.27;6.43;;;14.50;99.90;;;;;;4347437;28;659398;-66
2023/10/22 07:40:24;;;;;;;26.07;11.17;;;14.50;99.90;;;;;;4357962;28;660612;-67
2023/10/22 07:43:11;;;;;;;21.57;11.17;;;14.50;99.90;;;;;;4378183;28;661574;-67
2023/10/22 07:46:00;;;;;;;25.27;10.47;;;14.60;99.90;;;;;;4352248;28;660915;-67
2023/10/22 07:48:48;;;;;;;17.13;8.77;;;14.60;99.90;;;;;;4363338;28;659594;-67
2023/10/22 07:51:36;;;;;;;12.03;6.00;;;14.60;99.90;;;;;;4366955;28;660264;-67
2023/10/22 07:54:24;;;;;;;10.77;5.20;;;14.60;99.90;;;;;;4351572;28;658506;-67
2023/10/22 07:57:11;;;;;;;11.00;6.00;;;14.50;99.90;;;;;;4376908;28;658559;-67
2023/10/22 07:59:58;;;;;;;7.50;3.90;;;14.50;99.90;;;;;;4354438;28;658894;-67
2023/10/22 08:02:46;;;;;;;6.40;3.90;;;14.60;99.90;;;;;;4376103;28;657567;-67
2023/10/22 08:05:34;;;;;;;6.30;3.90;;;14.60;99.90;;;;;;4345252;28;657618;-67
2023/10/22 08:08:23;;;;;;;6.93;4.30;;;14.50;99.90;;;;;;4372892;28;658595;-67
2023/10/22 08:11:10;;;;;;;4.83;3.37;;;14.60;99.90;;;;;;4353750;28;658729;-67
2023/10/22 08:13:57;;;;;;;7.30;3.83;;;14.60;99.90;;;;;;4361946;28;657982;-67
2023/10/22 08:16:45;;;;;;;6.40;3.70;;;14.60;99.90;;;;;;4381362;28;658957;-67
2023/10/22 08:19:33;;;;;;;7.47;4.13;;;14.70;99.90;;;;;;4364025;28;657454;-67
2023/10/22 08:22:20;;;;;;;6.47;4.17;;;14.80;99.90;;;;;;4368752;28;659591;-67
2023/10/22 08:25:09;;;;;;;6.83;3.73;;;14.90;99.90;;;;;;4365354;28;657890;-67
2023/10/22 08:27:57;;;;;;;10.43;3.60;;;15.10;99.90;;;;;;4379599;28;658359;-67
2023/10/22 08:30:45;;;;;;;17.00;8.80;;;15.20;99.90;;;;;;4356705;28;658428;-66
2023/10/22 08:33:33;;;;;;;15.43;5.13;;;15.30;99.90;;;;;;4356996;28;659014;-67
2023/10/22 08:36:20;;;;;;;7.40;4.23;;;15.50;99.90;;;;;;4375978;28;660365;-66
2023/10/22 08:39:08;;;;;;;8.30;3.80;;;15.50;99.90;;;;;;4355207;28;658121;-67
2023/10/22 08:42:01;;;;;;;7.73;3.97;;;15.30;99.90;;;;;;4369895;28;658296;-67
2023/10/22 08:44:49;;;;;;;4.53;3.00;;;15.30;99.90;;;;;;4328552;28;658014;-66
2023/10/22 08:47:36;;;;;;;6.13;3.43;;;15.50;99.90;;;;;;4371790;28;657747;-66
2023/10/22 08:50:24;;;;;;;7.70;4.70;;;15.20;99.90;;;;;;4355519;28;657776;-67
2023/10/22 08:53:12;;;;;;;9.30;4.77;;;15.30;99.90;;;;;;4371140;28;657913;-67
2023/10/22 08:56:00;;;;;;;7.30;4.93;;;15.40;99.90;;;;;;4355000;28;659155;-67
2023/10/22 08:58:50;;;;;;;8.33;5.03;;;15.40;99.90;;;;;;4361998;28;657658;-67
2023/10/22 09:01:37;;;;;;;9.17;5.33;;;15.60;99.90;;;;;;4374311;28;658362;-66
2023/10/22 09:04:25;;;;;;;8.50;4.17;;;15.50;99.90;;;;;;4372074;28;658752;-66
2023/10/22 09:07:13;;;;;;;10.63;5.63;;;15.60;99.90;;;;;;4368050;28;658796;-67
2023/10/22 09:10:00;;;;;;;13.33;6.87;;;15.60;99.90;;;;;;4375870;28;659170;-66
2023/10/22 09:12:47;;;;;;;12.23;7.07;;;15.30;99.90;;;;;;4368048;28;658809;-66
2023/10/22 09:15:38;;;;;;;13.43;7.07;;;15.30;99.90;;;;;;4374984;28;659719;-67
2023/10/22 09:18:26;;;;;;;13.70;6.63;;;15.30;99.90;;;;;;4349370;28;659685;-67
2023/10/22 09:21:13;;;;;;;10.83;7.77;;;15.40;99.90;;;;;;4354709;28;659456;-67
2023/10/22 09:24:03;;;;;;;16.13;9.27;;;15.30;99.90;;;;;;4378640;28;659228;-67
2023/10/22 09:26:51;;;;;;;17.60;10.00;;;15.10;99.90;;;;;;4351887;28;658821;-67
2023/10/22 09:29:48;;;;;;;16.67;10.33;;;15.10;99.90;;;;;;4348808;28;659405;-67
2023/10/22 09:32:38;;;;;;;21.70;12.37;;;15.10;99.90;;;;;;4322703;28;660469;-67
2023/10/22 09:35:26;;;;;;;21.93;12.30;;;15.00;99.90;;;;;;4346543;28;660558;-67
2023/10/22 09:38:14;;;;;;;18.17;11.50;;;15.00;99.90;;;;;;4354130;28;659432;-67
2023/10/22 09:41:01;;;;;;;25.37;13.97;;;15.10;99.90;;;;;;4368367;28;659050;-66
2023/10/22 09:43:49;;;;;;;24.17;13.43;;;15.00;99.90;;;;;;4350496;28;659614;-66
2023/10/22 09:46:36;;;;;;;19.07;11.30;;;15.00;99.90;;;;;;4367082;28;660610;-66
2023/10/22 09:49:25;;;;;;;14.23;8.50;;;15.00;99.90;;;;;;4357824;28;659714;-66
2023/10/22 09:52:13;;;;;;;17.27;11.57;;;15.00;99.90;;;;;;4361655;28;659777;-67
2023/10/22 09:55:00;;;;;;;17.53;10.83;;;14.90;99.90;;;;;;4375328;28;661074;-67
2023/10/22 09:57:48;;;;;;;15.80;3.90;;;14.80;99.90;;;;;;4367704;28;659860;-66
2023/10/22 10:00:35;;;;;;;16.50;10.50;;;14.80;99.90;;;;;;4377069;28;660139;-67
2023/10/22 10:03:22;;;;;;;15.47;9.57;;;14.70;99.90;;;;;;4353221;28;660105;-66
2023/10/22 10:06:11;;;;;;;14.57;8.30;;;14.60;99.90;;;;;;4373016;28;659726;-67
2023/10/22 10:08:59;;;;;;;8.33;4.93;;;14.60;99.90;;;;;;4354546;28;658899;-66
2023/10/22 10:11:47;;;;;;;15.50;7.90;;;14.60;99.90;;;;;;4364890;28;657720;-67
2023/10/22 10:14:46;;;;;;;10.20;6.03;;;14.60;99.90;;;;;;4353517;28;659179;-66
2023/10/22 10:17:34;;;;;;;12.17;3.40;;;14.60;99.90;;;;;;4351908;28;658625;-67
2023/10/22 10:20:24;;;;;;;4.73;2.90;;;14.70;99.90;;;;;;4374708;28;659135;-67
2023/10/22 10:23:19;;;;;;;9.67;6.30;;;14.60;99.90;;;;;;4355923;28;657753;-67
2023/10/22 10:26:30;;;;;;;11.20;7.07;;;14.60;99.90;;;;;;4354741;28;657674;-67
2023/10/22 10:29:18;;;;;;;12.77;8.20;;;14.50;99.90;;;;;;4371527;28;659310;-67
2023/10/22 10:32:20;;;;;;;11.87;7.83;;;14.50;99.90;;;;;;4372118;28;659684;-67
2023/10/22 10:35:08;;;;;;;7.43;5.17;;;14.60;99.90;;;;;;4333308;28;658886;-66
2023/10/22 10:38:22;;;;;;;12.83;7.47;;;14.60;99.90;;;;;;4379534;28;658382;-66
2023/10/22 10:41:09;;;;;;;9.20;6.13;;;14.70;99.90;;;;;;4323623;28;660360;-66
2023/10/22 10:44:09;;;;;;;8.60;4.53;;;14.70;99.90;;;;;;4374567;28;657997;-69
2023/10/22 10:46:57;;;;;;;6.27;3.07;;;14.60;99.90;;;;;;4350954;28;657741;-69
2023/10/22 10:49:54;;;;;;;7.07;3.90;;;14.60;99.90;;;;;;4353268;28;658198;-68
2023/10/22 10:52:58;;;;;;;4.77;3.37;;;14.50;99.90;;;;;;4346681;28;658291;-66
2023/10/22 10:55:50;;;;;;;7.30;3.57;;;14.50;99.90;;;;;;4352983;28;658921;-66
2023/10/22 10:58:44;;;;;;;7.20;3.90;;;14.40;99.90;;;;;;4347969;28;658024;-66
2023/10/22 11:01:31;;;;;;;11.50;5.53;;;14.30;99.90;;;;;;4352222;28;657900;-67
2023/10/22 11:04:18;;;;;;;9.93;5.90;;;14.40;99.90;;;;;;4361795;28;658939;-66
2023/10/22 11:07:06;;;;;;;9.00;6.17;;;14.50;99.90;;;;;;4377608;28;658398;-66
2023/10/22 11:09:53;;;;;;;11.40;7.03;;;14.50;99.90;;;;;;4367441;28;657927;-66
2023/10/22 11:12:42;;;;;;;11.97;7.10;;;14.60;99.90;;;;;;4375972;28;659871;-66
2023/10/22 11:15:32;;;;;;;6.80;4.67;;;14.70;99.90;;;;;;4356681;28;659224;-66
2023/10/22 11:18:19;;;;;;;14.87;9.23;;;14.80;99.90;;;;;;4350872;28;659270;-66
2023/10/22 11:21:07;;;;;;;14.40;10.30;;;14.70;99.90;;;;;;4382247;28;658991;-66
2023/10/22 11:23:55;;;;;;;18.37;10.63;;;14.80;99.90;;;;;;4348374;28;660049;-66
2023/10/22 11:26:43;;;;;;;16.30;10.35;;;14.80;99.90;;;;;;4366131;28;659689;-66
2023/10/22 11:29:40;;;;;;;12.53;8.30;;;14.80;99.90;;;;;;4376047;28;660821;-66
2023/10/22 11:32:27;;;;;;;13.77;8.93;;;14.80;99.90;;;;;;4367843;28;658798;-66
2023/10/22 11:35:15;;;;;;;13.80;5.73;;;14.80;99.90;;;;;;4376467;28;659541;-66
2023/10/22 11:38:03;;;;;;;16.80;10.37;;;14.80;99.90;;;;;;4363580;28;658871;-66
2023/10/22 11:40:54;;;;;;;5.57;3.37;;;14.60;99.90;;;;;;4347798;28;660762;-69
2023/10/22 11:43:43;;;;;;;6.63;3.63;;;14.70;99.90;;;;;;4335372;28;658078;-69
2023/10/22 11:46:41;;;;;;;7.27;4.73;;;14.70;99.90;;;;;;4342473;28;659010;-69
2023/10/22 11:49:29;;;;;;;12.10;7.80;;;14.70;99.90;;;;;;4321479;28;658338;-66
2023/10/22 11:52:18;;;;;;;7.97;4.63;;;14.70;99.90;;;;;;4361501;28;659906;-66
2023/10/22 11:55:06;;;;;;;7.33;3.93;;;14.70;99.90;;;;;;4344012;28;658433;-66
2023/10/22 11:57:53;;;;;;;12.17;7.40;;;14.70;99.90;;;;;;4334736;28;657770;-66
2023/10/22 12:00:41;;;;;;;13.20;9.30;;;14.70;99.90;;;;;;4362951;28;660431;-66
2023/10/22 12:03:29;;;;;;;15.90;9.90;;;14.60;99.90;;;;;;4330931;28;658452;-66
2023/10/22 12:06:17;;;;;;;15.13;9.73;;;14.60;99.90;;;;;;4350819;28;659172;-68
2023/10/22 12:09:05;;;;;;;18.20;10.83;;;14.70;99.90;;;;;;4346294;28;659850;-66
2023/10/22 12:11:53;;;;;;;17.03;11.53;;;14.70;99.90;;;;;;4357452;28;660373;-67
2023/10/22 12:14:41;;;;;;;17.83;10.40;;;14.70;99.90;;;;;;4358239;28;660864;-66
2023/10/22 12:17:29;;;;;;;21.37;12.77;;;14.70;99.90;;;;;;4333400;28;659638;-66
2023/10/22 12:20:18;;;;;;;20.87;13.50;;;14.70;99.90;;;;;;4355108;28;659439;-66
2023/10/22 12:23:05;;;;;;;21.43;13.93;;;14.60;99.90;;;;;;4323275;28;660597;-66
2023/10/22 12:25:53;;;;;;;33.67;19.17;;;14.50;99.90;;;;;;4326997;28;659726;-66
2023/10/22 12:28:40;;;;;;;26.67;14.53;;;14.30;99.90;;;;;;4351818;28;661657;-66
2023/10/22 12:31:28;;;;;;;21.47;12.83;;;14.10;99.90;;;;;;4337880;28;659987;-69
2023/10/22 12:34:15;;;;;;;28.97;17.67;;;13.90;99.90;;;;;;4364998;28;660799;-69
2023/10/22 12:37:04;;;;;;;17.57;10.97;;;13.70;99.90;;;;;;4336095;28;659572;-69
2023/10/22 12:39:52;;;;;;;19.13;10.67;;;13.60;99.90;;;;;;4356524;28;659878;-69
2023/10/22 12:42:42;;;;;;;14.93;10.37;;;13.40;99.90;;;;;;4316981;28;659933;-69
2023/10/22 12:45:29;;;;;;;20.93;12.30;;;13.20;99.90;;;;;;4288718;28;660714;-70
2023/10/22 12:48:16;;;;;;;18.47;11.77;;;13.20;99.90;;;;;;4278538;28;660072;-69
2023/10/22 12:51:03;;;;;;;19.17;12.03;;;13.20;99.90;;;;;;4312578;28;659454;-67
2023/10/22 12:53:52;;;;;;;9.20;5.25;;;13.20;99.90;;;;;;4368376;28;660808;-66
2023/10/22 12:56:39;;;;;;;11.37;7.60;;;13.30;99.90;;;;;;4353145;28;658740;-67
2023/10/22 12:59:29;;;;;;;21.53;11.07;;;13.20;99.90;;;;;;4369633;28;659047;-69
2023/10/22 13:02:16;;;;;;;14.07;8.73;;;13.10;99.90;;;;;;4350344;28;659576;-67
2023/10/22 13:05:04;;;;;;;12.77;7.83;;;13.10;99.90;;;;;;4349529;28;659330;-67
2023/10/22 13:07:51;;;;;;;11.93;7.23;;;13.00;99.90;;;;;;4370458;28;659226;-67
2023/10/22 13:10:45;;;;;;;14.23;8.20;;;13.00;99.90;;;;;;4362386;28;658864;-68
2023/10/22 13:13:32;;;;;;;14.73;7.23;;;13.00;99.90;;;;;;4364903;28;658572;-69
2023/10/22 13:16:20;;;;;;;11.57;7.47;;;12.80;99.90;;;;;;4381814;28;659112;-69
2023/10/22 13:19:07;;;;;;;10.03;6.93;;;12.70;99.90;;;;;;4375312;28;659074;-66
2023/10/22 13:21:55;;;;;;;5.73;3.30;;;12.70;99.90;;;;;;4379179;28;659188;-68
2023/10/22 13:24:42;;;;;;;7.77;4.27;;;12.70;99.90;;;;;;4379680;28;657158;-69
2023/10/22 13:27:32;;;;;;;1.73;1.47;;;12.60;99.90;;;;;;4362634;28;658637;-69
2023/10/22 13:30:20;;;;;;;4.78;2.35;;;12.60;99.90;;;;;;4351626;28;658627;-69
2023/10/22 13:33:08;;;;;;;3.87;1.90;;;12.50;99.90;;;;;;4371562;28;657755;-69
2023/10/22 13:35:56;;;;;;;4.57;2.00;;;12.40;99.90;;;;;;4380570;28;658484;-69
2023/10/22 13:38:43;;;;;;;2.77;2.00;;;12.40;99.90;;;;;;4354026;28;658138;-69
2023/10/22 13:41:30;;;;;;;2.43;1.83;;;12.40;99.90;;;;;;4377895;28;658863;-69
2023/10/22 13:44:19;;;;;;;2.67;2.10;;;12.30;99.90;;;;;;4372259;28;657523;-69
2023/10/22 13:47:06;;;;;;;1.53;1.30;;;12.20;99.90;;;;;;4382010;28;657437;-69
2023/10/22 13:49:53;;;;;;;7.43;3.03;;;12.30;99.90;;;;;;4357561;28;657371;-69
2023/10/22 13:52:40;;;;;;;4.80;3.05;;;12.30;99.90;;;;;;4372558;28;657766;-69
2023/10/22 13:55:28;;;;;;;8.07;2.60;;;12.20;99.90;;;;;;4351847;28;657782;-66
2023/10/22 13:58:15;;;;;;;5.80;2.60;;;12.10;99.90;;;;;;4374340;28;659344;-66
2023/10/22 14:01:10;;;;;;;3.30;2.23;;;12.10;99.90;;;;;;4373996;28;657559;-69
2023/10/22 14:03:57;;;;;;;5.60;2.43;;;12.10;99.90;;;;;;4339473;28;658109;-69
2023/10/22 14:06:46;;;;;;;4.53;2.40;;;12.10;99.90;;;;;;4380539;28;657795;-69
2023/10/22 14:09:34;;;;;;;5.10;2.70;;;12.10;99.90;;;;;;4349142;28;657956;-69
2023/10/22 14:12:21;;;;;;;4.00;2.40;;;12.10;99.90;;;;;;4384125;28;658981;-66
2023/10/22 14:15:09;;;;;;;2.77;1.53;;;12.20;99.90;;;;;;4362709;28;657896;-69
2023/10/22 14:17:57;;;;;;;6.47;2.87;;;12.20;99.90;;;;;;4393921;28;657450;-66